Terminal Aerodrome Forecast
Issued by NWS Melbourne, FL

Home | Current Version | Previous Version | Text Only | Print | Product List | Glossary On
Versions: 1 2 3 4 5 6 7 8 9 10 11 12 13 14 15 16 17 18 19 20 21 22 23 24
000
FTUS42 KMLB 301400 AAA
TAFMCO
TAF AMD
KMCO 301459Z 3015/3112 27008KT P6SM SCT035 BKN250
      TEMPO 3015/3016 BKN025
     FM301600 28007KT P6SM BKN025 BKN035 BKN250
     FM301800 32011G20KT P6SM SCT020 SCT250
     FM310000 35009KT P6SM SCT250=

USA.gov is the U.S. government's official web portal to all federal, state and local government web resources and services.